Time;durP1;ratioP1;P1;durP2;ratioP2;P2;SDS_P1;SDS_P2;PMS_P1;PMS_P2;Temp;Humidity;BMP_temperature;BMP_pressure;BME280_temperature;BME280_humidity;BME280_pressure;Samples;Min_cycle;Max_cycle;Signal;HPM_P1;HPM_P2
2022/10/11 00:00:45;;;;;;;16.45;4.03;;;6.80;99.90;;;;;;5113783;28;20047;-59
2022/10/11 00:03:14;;;;;;;14.95;2.88;;;6.80;99.90;;;;;;5113212;28;20195;-59
2022/10/11 00:05:42;;;;;;;15.40;3.53;;;6.80;99.90;;;;;;5095839;28;20047;-60
2022/10/11 00:08:09;;;;;;;12.07;3.47;;;6.70;99.90;;;;;;5095550;28;20120;-60
2022/10/11 00:10:36;;;;;;;12.45;3.05;;;6.70;99.90;;;;;;5113153;28;20047;-60
2022/10/11 00:13:04;;;;;;;15.57;4.03;;;6.70;99.90;;;;;;5113455;28;20487;-60
2022/10/11 00:15:31;;;;;;;22.00;3.40;;;6.70;99.90;;;;;;5095681;28;20093;-60
2022/10/11 00:17:58;;;;;;;14.48;2.88;;;6.70;99.90;;;;;;5113438;28;20051;-59
2022/10/11 00:20:26;;;;;;;14.60;2.92;;;6.70;99.90;;;;;;5095530;28;20047;-60
2022/10/11 00:22:53;;;;;;;12.43;3.25;;;6.60;99.90;;;;;;5095161;28;20048;-60
2022/10/11 00:25:20;;;;;;;11.32;2.88;;;6.60;99.90;;;;;;5094944;28;20108;-60
2022/10/11 00:27:47;;;;;;;12.07;3.05;;;6.50;99.90;;;;;;5114097;28;20449;-59
2022/10/11 00:30:14;;;;;;;12.63;3.42;;;6.50;99.90;;;;;;5112969;28;20101;-59
2022/10/11 00:32:41;;;;;;;16.85;3.05;;;6.50;99.90;;;;;;5113583;28;20380;-59
2022/10/11 00:35:08;;;;;;;18.05;3.22;;;6.50;99.90;;;;;;5095188;28;20337;-60
2022/10/11 00:37:38;;;;;;;12.82;2.85;;;6.50;99.90;;;;;;5094518;28;20059;-60
2022/10/11 00:40:08;;;;;;;11.25;2.80;;;6.40;99.90;;;;;;5093969;28;20445;-59
2022/10/11 00:42:35;;;;;;;7.72;2.45;;;6.50;99.90;;;;;;5095057;28;20055;-60
2022/10/11 00:45:49;;;;;;;14.82;3.08;;;6.50;99.90;;;;;;5112752;28;20551;-60
2022/10/11 00:48:21;;;;;;;14.45;2.65;;;6.50;99.90;;;;;;5033932;28;20049;-60
2022/10/11 00:50:49;;;;;;;8.75;2.75;;;6.50;99.90;;;;;;5050909;28;20237;-60
2022/10/11 00:53:17;;;;;;;14.90;3.10;;;6.50;99.90;;;;;;5086494;28;20047;-60
2022/10/11 00:55:53;;;;;;;12.32;3.42;;;6.50;99.90;;;;;;5113268;28;20074;-58
2022/10/11 00:58:21;;;;;;;8.25;3.08;;;6.50;99.90;;;;;;5112585;28;20051;-59
2022/10/11 01:00:48;;;;;;;10.98;3.10;;;6.50;99.90;;;;;;5113086;28;20047;-60
2022/10/11 01:03:17;;;;;;;13.20;2.78;;;6.50;99.90;;;;;;5113183;28;20054;-59
2022/10/11 01:05:45;;;;;;;13.85;3.00;;;6.50;99.90;;;;;;5112932;28;20129;-59
2022/10/11 01:08:12;;;;;;;10.32;3.03;;;6.50;99.90;;;;;;5116917;28;20047;-59
2022/10/11 01:10:40;;;;;;;9.75;2.72;;;6.50;99.90;;;;;;5099367;28;20483;-59
2022/10/11 01:13:17;;;;;;;10.63;2.70;;;6.50;99.90;;;;;;5116764;28;20059;-60
2022/10/11 01:15:50;;;;;;;12.65;3.13;;;6.50;99.90;;;;;;5099237;28;20056;-59
2022/10/11 01:18:27;;;;;;;13.82;4.30;;;6.50;99.90;;;;;;5117362;28;20052;-60
2022/10/11 01:21:03;;;;;;;10.95;3.17;;;6.50;99.90;;;;;;5098228;28;20055;-59
2022/10/11 01:23:55;;;;;;;11.55;2.42;;;6.50;99.90;;;;;;5098717;28;20043;-59
2022/10/11 01:26:51;;;;;;;10.43;2.83;;;6.50;99.90;;;;;;5116949;28;20441;-60
2022/10/11 01:29:31;;;;;;;11.00;3.17;;;6.60;99.90;;;;;;5068446;28;20063;-60
2022/10/11 01:32:08;;;;;;;13.30;3.70;;;6.60;99.90;;;;;;5098741;28;20326;-59
2022/10/11 01:34:39;;;;;;;12.50;2.63;;;6.50;99.90;;;;;;5116419;28;20044;-60
2022/10/11 01:37:12;;;;;;;12.15;2.78;;;6.50;99.90;;;;;;5098702;28;20109;-60
2022/10/11 01:39:46;;;;;;;15.80;4.22;;;6.50;99.90;;;;;;5116932;28;20051;-60
2022/10/11 01:42:14;;;;;;;13.75;3.20;;;6.50;99.90;;;;;;5116243;28;20044;-59
2022/10/11 01:44:46;;;;;;;8.95;2.50;;;6.60;99.90;;;;;;5116583;28;20086;-60
2022/10/11 01:47:19;;;;;;;13.07;2.40;;;6.60;99.90;;;;;;5116702;28;20051;-60
2022/10/11 01:49:46;;;;;;;18.88;3.22;;;6.60;99.90;;;;;;5116591;28;20062;-59
2022/10/11 01:52:13;;;;;;;13.65;3.45;;;6.60;99.90;;;;;;5116628;28;20450;-60
2022/10/11 01:54:56;;;;;;;15.63;3.47;;;6.60;99.90;;;;;;5115517;28;20051;-58
2022/10/11 01:57:47;;;;;;;18.00;2.88;;;6.60;99.90;;;;;;5098437;28;20074;-60
2022/10/11 02:00:18;;;;;;;14.02;2.80;;;6.50;99.90;;;;;;5097944;28;20059;-60
2022/10/11 02:03:04;;;;;;;16.10;2.58;;;6.50;99.90;;;;;;5116396;28;20055;-61
2022/10/11 02:05:39;;;;;;;9.32;3.00;;;6.40;99.90;;;;;;5115836;28;20047;-60
2022/10/11 02:08:13;;;;;;;12.18;2.78;;;6.40;99.90;;;;;;5116340;28;20055;-60
2022/10/11 02:10:46;;;;;;;7.57;2.45;;;6.30;99.90;;;;;;5114937;28;20310;-60
2022/10/11 02:13:18;;;;;;;13.07;2.55;;;6.20;99.90;;;;;;5097721;28;20104;-60
2022/10/11 02:15:48;;;;;;;12.88;3.15;;;6.20;99.90;;;;;;5097874;28;20528;-60
2022/10/11 02:18:20;;;;;;;9.70;2.28;;;6.20;99.90;;;;;;5114472;28;20423;-60
2022/10/11 02:20:48;;;;;;;15.77;3.00;;;6.20;99.90;;;;;;5095441;28;20055;-59
2022/10/11 02:23:19;;;;;;;11.88;2.53;;;6.20;99.90;;;;;;5094915;28;20090;-60
2022/10/11 02:25:49;;;;;;;12.77;2.72;;;6.20;99.90;;;;;;5095385;28;20051;-60
2022/10/11 02:28:21;;;;;;;10.60;2.70;;;6.30;99.90;;;;;;5077414;28;20105;-60
2022/10/11 02:30:49;;;;;;;9.48;2.72;;;6.30;99.90;;;;;;5094784;28;20052;-60
2022/10/11 02:33:22;;;;;;;9.38;2.22;;;6.30;99.90;;;;;;5079102;28;20052;-60
2022/10/11 02:35:55;;;;;;;14.80;2.67;;;6.20;99.90;;;;;;5097928;28;20051;-59
2022/10/11 02:38:26;;;;;;;12.93;2.63;;;6.20;99.90;;;;;;5097079;28;20091;-60
2022/10/11 02:40:58;;;;;;;10.05;2.65;;;6.10;99.90;;;;;;5115468;28;20047;-59
2022/10/11 02:43:31;;;;;;;12.15;2.60;;;6.10;99.90;;;;;;5115484;28;20122;-60
2022/10/11 02:46:00;;;;;;;13.18;2.75;;;6.10;99.90;;;;;;5115240;28;20055;-59
2022/10/11 02:48:30;;;;;;;8.68;3.15;;;6.00;99.90;;;;;;5116108;28;20517;-60
2022/10/11 02:50:57;;;;;;;11.93;2.90;;;6.00;99.90;;;;;;5115426;28;20062;-60
2022/10/11 02:53:26;;;;;;;18.70;3.55;;;6.00;99.90;;;;;;5114817;28;20051;-59
2022/10/11 02:55:54;;;;;;;9.13;2.55;;;6.00;99.90;;;;;;5115381;28;20052;-60
2022/10/11 02:58:22;;;;;;;11.50;2.67;;;6.00;99.90;;;;;;5115282;28;20056;-58
2022/10/11 03:00:49;;;;;;;9.25;3.20;;;6.00;99.90;;;;;;5115371;28;20047;-59
2022/10/11 03:03:16;;;;;;;8.23;2.42;;;6.00;99.90;;;;;;5115448;28;20048;-59
2022/10/11 03:05:44;;;;;;;12.30;2.78;;;5.90;99.90;;;;;;5114595;28;20051;-59
2022/10/11 03:08:13;;;;;;;12.65;2.92;;;5.90;99.90;;;;;;5114948;28;20494;-59
2022/10/11 03:10:41;;;;;;;13.10;3.30;;;6.00;99.90;;;;;;5114848;28;20089;-59
2022/10/11 03:13:08;;;;;;;13.88;3.13;;;6.00;99.90;;;;;;5096567;28;20059;-60
2022/10/11 03:15:35;;;;;;;11.68;2.53;;;5.90;99.90;;;;;;5096617;28;20055;-59
2022/10/11 03:18:02;;;;;;;9.82;2.78;;;5.90;99.90;;;;;;5097154;28;20478;-60
2022/10/11 03:20:29;;;;;;;12.05;2.53;;;5.90;99.90;;;;;;5114311;28;20054;-59
2022/10/11 03:22:57;;;;;;;10.50;2.42;;;5.90;99.90;;;;;;5095843;28;20062;-59
2022/10/11 03:25:24;;;;;;;9.40;2.58;;;5.90;99.90;;;;;;5114215;28;20104;-60
2022/10/11 03:27:51;;;;;;;11.98;2.88;;;5.90;99.90;;;;;;5095827;28;20043;-59
2022/10/11 03:30:18;;;;;;;8.75;2.65;;;5.90;99.90;;;;;;5114127;28;20058;-59
2022/10/11 03:32:46;;;;;;;7.35;2.50;;;5.90;99.90;;;;;;5114693;28;20039;-60
2022/10/11 03:35:13;;;;;;;17.92;2.67;;;5.90;99.90;;;;;;5114380;28;20047;-60
2022/10/11 03:37:40;;;;;;;12.07;3.08;;;5.90;99.90;;;;;;5096413;28;20066;-60
2022/10/11 03:40:09;;;;;;;16.88;3.13;;;5.80;99.90;;;;;;5114154;28;20055;-59
2022/10/11 03:42:37;;;;;;;9.20;2.90;;;5.80;99.90;;;;;;5114247;28;20039;-61
2022/10/11 03:45:06;;;;;;;11.63;2.67;;;5.80;99.90;;;;;;5114462;28;20093;-59
2022/10/11 03:47:34;;;;;;;9.63;2.50;;;5.80;99.90;;;;;;5093348;28;20044;-60
2022/10/11 03:50:01;;;;;;;19.85;4.72;;;5.70;99.90;;;;;;5074481;28;20480;-60
2022/10/11 03:52:27;;;;;;;9.90;2.58;;;5.90;99.90;;;;;;5102495;28;20506;-60
2022/10/11 03:54:54;;;;;;;15.23;2.63;;;5.80;99.90;;;;;;5090583;28;20054;-60
2022/10/11 03:57:23;;;;;;;8.88;2.63;;;5.80;99.90;;;;;;5105404;28;20047;-60
2022/10/11 03:59:50;;;;;;;15.80;2.92;;;5.80;99.90;;;;;;5091898;28;20419;-60
2022/10/11 04:02:17;;;;;;;13.18;2.90;;;5.80;99.90;;;;;;5106430;28;20047;-60
2022/10/11 04:04:44;;;;;;;8.70;2.60;;;5.80;99.90;;;;;;5104601;28;20047;-59
2022/10/11 04:07:11;;;;;;;10.55;2.90;;;5.90;99.90;;;;;;5091166;28;20055;-60
2022/10/11 04:09:37;;;;;;;12.70;3.35;;;5.90;99.90;;;;;;5105508;28;20445;-59
2022/10/11 04:12:05;;;;;;;6.45;2.30;;;5.90;99.90;;;;;;5104162;28;20043;-61
2022/10/11 04:14:33;;;;;;;11.73;2.47;;;5.90;99.90;;;;;;5104233;28;20059;-60
2022/10/11 04:17:00;;;;;;;11.00;2.90;;;5.90;99.90;;;;;;5110427;28;20417;-60
2022/10/11 04:19:27;;;;;;;13.38;2.85;;;5.90;99.90;;;;;;5104727;28;20039;-60
2022/10/11 04:21:54;;;;;;;15.25;2.90;;;6.10;99.90;;;;;;5101781;28;20096;-59
2022/10/11 04:24:21;;;;;;;10.38;3.33;;;6.00;99.90;;;;;;5099743;28;20534;-60
2022/10/11 04:26:47;;;;;;;11.00;2.90;;;6.00;99.90;;;;;;5102320;28;20051;-59
2022/10/11 04:29:14;;;;;;;10.30;2.53;;;5.90;99.90;;;;;;5108825;28;20108;-60
2022/10/11 04:31:43;;;;;;;15.43;3.08;;;5.90;99.90;;;;;;5105079;28;20491;-60
2022/10/11 04:34:10;;;;;;;14.55;2.55;;;5.90;99.90;;;;;;5103720;28;20533;-59
2022/10/11 04:36:37;;;;;;;16.42;3.03;;;5.90;99.90;;;;;;5084506;28;20547;-59
2022/10/11 04:39:05;;;;;;;9.80;2.72;;;5.90;99.90;;;;;;5104233;28;20071;-60
2022/10/11 04:41:32;;;;;;;17.10;3.35;;;5.90;99.90;;;;;;5108789;28;20079;-60
2022/10/11 04:43:59;;;;;;;17.55;3.50;;;5.80;99.90;;;;;;5103833;28;20051;-60
2022/10/11 04:46:26;;;;;;;13.05;3.03;;;5.80;99.90;;;;;;5108972;28;20039;-59
2022/10/11 04:48:55;;;;;;;8.23;2.72;;;5.80;99.90;;;;;;5103191;28;20044;-59
2022/10/11 04:51:22;;;;;;;9.07;2.47;;;5.80;99.90;;;;;;5102018;28;20043;-60
2022/10/11 04:53:49;;;;;;;12.77;2.88;;;5.80;99.90;;;;;;5103146;28;20499;-61
2022/10/11 04:56:17;;;;;;;9.35;2.67;;;5.80;99.90;;;;;;5084049;28;20059;-60
2022/10/11 04:58:46;;;;;;;10.70;2.92;;;5.70;99.90;;;;;;5091185;28;20513;-60
2022/10/11 05:01:14;;;;;;;12.45;3.05;;;5.80;99.90;;;;;;5102244;28;20163;-60
2022/10/11 05:03:41;;;;;;;9.70;2.65;;;5.90;99.90;;;;;;5087570;28;20055;-60
2022/10/11 05:06:09;;;;;;;12.05;2.38;;;5.90;99.90;;;;;;5082062;28;20048;-60
2022/10/11 05:08:36;;;;;;;10.10;3.00;;;5.80;99.90;;;;;;5102391;28;20444;-60
2022/10/11 05:11:04;;;;;;;11.43;3.45;;;5.80;99.90;;;;;;5105330;28;20086;-60
2022/10/11 05:13:32;;;;;;;15.73;3.80;;;5.80;99.90;;;;;;5084052;28;20068;-59
2022/10/11 05:15:59;;;;;;;14.93;3.15;;;5.80;99.90;;;;;;5092032;28;20044;-59
2022/10/11 05:18:27;;;;;;;18.88;3.20;;;5.80;99.90;;;;;;5081047;28;20048;-59
2022/10/11 05:21:00;;;;;;;19.73;3.00;;;5.80;99.90;;;;;;5091474;28;20052;-60
2022/10/11 05:23:29;;;;;;;8.18;2.90;;;5.80;99.90;;;;;;5085836;28;20051;-59
2022/10/11 05:25:56;;;;;;;10.45;3.10;;;5.80;99.90;;;;;;5083995;28;20074;-59
2022/10/11 05:28:23;;;;;;;11.15;2.90;;;5.80;99.90;;;;;;5095807;28;20067;-59
2022/10/11 05:30:50;;;;;;;11.38;2.75;;;5.80;99.90;;;;;;5091152;28;20129;-61
2022/10/11 05:33:17;;;;;;;11.18;2.38;;;5.90;99.90;;;;;;5098503;28;20051;-59
2022/10/11 05:35:44;;;;;;;9.88;2.92;;;5.90;99.90;;;;;;5091062;28;20127;-60
2022/10/11 05:38:11;;;;;;;7.93;2.90;;;6.00;99.90;;;;;;5091536;28;20075;-59
2022/10/11 05:40:40;;;;;;;9.75;2.65;;;6.00;99.90;;;;;;5092256;28;20051;-60
2022/10/11 05:43:07;;;;;;;11.07;2.95;;;6.10;99.90;;;;;;5092631;28;20052;-60
2022/10/11 05:45:36;;;;;;;9.65;2.97;;;6.00;99.90;;;;;;5091227;28;20048;-60
2022/10/11 05:48:03;;;;;;;11.18;2.70;;;6.10;99.90;;;;;;5097823;28;20040;-60
2022/10/11 05:50:30;;;;;;;10.10;3.20;;;6.10;99.90;;;;;;5073384;28;20055;-59
2022/10/11 05:52:56;;;;;;;12.35;2.80;;;6.10;99.90;;;;;;5082314;28;20066;-59
2022/10/11 05:55:24;;;;;;;16.08;3.00;;;6.10;99.90;;;;;;5111359;28;20097;-59
2022/10/11 05:57:53;;;;;;;15.35;3.10;;;6.10;99.90;;;;;;5076483;28;20355;-60
2022/10/11 06:00:20;;;;;;;9.00;2.42;;;6.10;99.90;;;;;;5114070;28;20457;-59
2022/10/11 06:02:47;;;;;;;10.38;2.60;;;6.10;99.90;;;;;;5098029;28;20047;-60
2022/10/11 06:31:03;;;;;;;10.88;2.88;;;6.30;99.90;;;;;;5094236;28;20047;-60
2022/10/11 06:33:31;;;;;;;20.60;3.47;;;6.40;99.90;;;;;;5096820;28;20040;-59
2022/10/11 06:35:58;;;;;;;7.93;2.60;;;6.50;99.90;;;;;;5090707;28;20104;-60
2022/10/11 06:38:26;;;;;;;18.48;3.30;;;6.50;99.90;;;;;;5082070;28;20140;-59
2022/10/11 06:40:52;;;;;;;10.07;3.05;;;6.60;99.90;;;;;;5094125;28;20055;-59
2022/10/11 06:43:19;;;;;;;6.43;2.72;;;6.70;99.90;;;;;;5077736;28;20055;-59
2022/10/11 06:45:46;;;;;;;10.85;3.58;;;6.80;99.90;;;;;;5098626;28;20044;-60
2022/10/11 06:48:15;;;;;;;9.02;2.85;;;7.00;99.90;;;;;;5091481;27;20056;-60
2022/10/11 06:50:42;;;;;;;9.02;2.80;;;7.10;99.90;;;;;;5096489;28;20116;-60
2022/10/11 06:53:09;;;;;;;10.75;3.78;;;7.20;99.90;;;;;;5114140;28;20047;-60
2022/10/11 06:55:36;;;;;;;9.45;2.60;;;7.30;99.90;;;;;;5115492;28;20467;-60
2022/10/11 06:58:02;;;;;;;11.23;2.92;;;7.50;99.90;;;;;;5128966;27;20051;-60
2022/10/11 07:00:29;;;;;;;12.52;3.38;;;7.60;99.90;;;;;;5135738;27;20444;-59
2022/10/11 07:02:56;;;;;;;7.28;2.72;;;7.80;99.90;;;;;;5116959;27;20043;-60
2022/10/11 07:05:25;;;;;;;10.48;2.55;;;7.90;99.90;;;;;;5097028;28;20077;-60
2022/10/11 07:07:52;;;;;;;7.03;2.72;;;8.60;99.90;;;;;;5094617;28;20054;-60
2022/10/11 07:10:19;;;;;;;13.55;3.35;;;9.70;99.90;;;;;;5094647;28;20051;-60
2022/10/11 07:12:46;;;;;;;14.52;3.03;;;11.00;99.90;;;;;;5105135;28;20143;-60
2022/10/11 07:15:12;;;;;;;10.55;2.58;;;12.10;99.90;;;;;;5096746;28;20052;-59
2022/10/11 07:17:39;;;;;;;13.00;2.85;;;13.20;99.90;;;;;;5096849;28;20491;-60
2022/10/11 07:20:08;;;;;;;9.18;2.65;;;13.90;99.90;;;;;;5114298;28;20453;-59
2022/10/11 07:22:36;;;;;;;7.53;2.90;;;14.40;99.90;;;;;;5096703;28;20130;-60
2022/10/11 07:25:04;;;;;;;8.27;1.98;;;15.00;99.90;;;;;;5114010;28;20058;-60
2022/10/11 07:27:31;;;;;;;6.97;2.10;;;15.20;99.90;;;;;;5096667;28;20052;-60
2022/10/11 07:29:57;;;;;;;11.57;2.60;;;15.50;99.90;;;;;;5096371;28;20058;-60
2022/10/11 07:32:24;;;;;;;10.38;3.03;;;15.90;99.90;;;;;;5095746;28;20044;-60
2022/10/11 07:34:51;;;;;;;8.48;2.75;;;16.30;99.90;;;;;;5094064;28;20051;-60
2022/10/11 07:37:18;;;;;;;7.80;2.20;;;16.40;99.90;;;;;;5076378;28;20106;-61
2022/10/11 07:39:48;;;;;;;14.52;2.88;;;16.50;99.90;;;;;;5091192;27;20047;-60
2022/10/11 07:42:15;;;;;;;8.27;2.42;;;16.90;99.90;;;;;;5124015;27;20050;-60
2022/10/11 07:44:42;;;;;;;7.53;2.50;;;17.30;99.90;;;;;;5096364;28;20097;-61
2022/10/11 07:47:09;;;;;;;10.32;2.95;;;17.70;99.90;;;;;;5108793;28;20487;-59
2022/10/11 07:49:36;;;;;;;7.15;2.22;;;18.10;99.90;;;;;;5105681;28;20376;-60
2022/10/11 07:52:02;;;;;;;8.77;2.65;;;18.40;99.90;;;;;;5113548;28;20055;-60
2022/10/11 07:54:29;;;;;;;10.07;3.08;;;18.90;99.90;;;;;;5113162;28;20084;-60
2022/10/11 07:56:58;;;;;;;5.82;1.98;;;19.30;99.90;;;;;;5114146;28;20415;-60
2022/10/11 07:59:24;;;;;;;9.07;2.90;;;19.70;99.90;;;;;;5113937;28;20051;-60
2022/10/11 08:01:51;;;;;;;9.50;2.30;;;19.90;99.90;;;;;;5113230;28;20058;-61
2022/10/11 08:04:20;;;;;;;5.97;2.45;;;20.20;99.90;;;;;;5113629;28;20054;-61
2022/10/11 08:06:47;;;;;;;9.80;2.58;;;20.10;99.80;;;;;;5114270;28;20087;-60
2022/10/11 08:09:13;;;;;;;6.32;2.20;;;20.70;99.50;;;;;;5113206;28;20070;-60
2022/10/11 08:11:40;;;;;;;9.63;2.42;;;20.60;99.20;;;;;;5113741;28;20047;-59
2022/10/11 08:14:10;;;;;;;10.65;2.17;;;20.80;98.90;;;;;;5113260;28;20063;-60
2022/10/11 08:16:37;;;;;;;14.83;2.40;;;21.00;97.40;;;;;;5094933;28;20047;-60
2022/10/11 08:19:04;;;;;;;6.00;2.38;;;20.90;96.70;;;;;;5095250;28;21029;-61
2022/10/11 08:21:32;;;;;;;8.00;2.45;;;21.50;96.40;;;;;;5112948;28;20112;-60
2022/10/11 08:24:01;;;;;;;8.60;2.35;;;21.90;95.70;;;;;;5112703;28;20047;-60
2022/10/11 08:26:28;;;;;;;9.05;2.30;;;22.10;94.90;;;;;;5113449;28;20108;-61
2022/10/11 08:28:55;;;;;;;8.75;2.50;;;22.60;94.40;;;;;;5095068;28;20047;-61
2022/10/11 08:31:23;;;;;;;12.95;2.75;;;22.20;93.40;;;;;;5078549;28;20060;-61
2022/10/11 08:33:50;;;;;;;7.65;2.45;;;22.50;92.40;;;;;;5074698;28;20044;-60
2022/10/11 08:36:17;;;;;;;7.53;1.83;;;22.90;92.50;;;;;;5092943;28;20133;-60
2022/10/11 08:38:44;;;;;;;9.73;2.58;;;23.10;92.20;;;;;;5074828;28;20094;-60
2022/10/11 08:41:25;;;;;;;6.60;1.80;;;22.70;91.90;;;;;;5093166;28;20044;-60
2022/10/11 08:43:59;;;;;;;8.13;2.08;;;22.90;90.10;;;;;;5091799;28;20109;-62
2022/10/11 08:46:31;;;;;;;5.63;1.92;;;23.30;90.20;;;;;;5075202;28;20056;-60
2022/10/11 08:48:59;;;;;;;6.35;2.05;;;23.60;90.40;;;;;;5092942;28;20147;-61
2022/10/11 08:51:30;;;;;;;7.20;2.50;;;24.00;90.00;;;;;;5092279;28;20100;-59
2022/10/11 08:54:02;;;;;;;7.22;2.33;;;24.10;85.40;;;;;;5074763;28;20047;-60
2022/10/11 08:56:32;;;;;;;10.73;2.38;;;23.50;88.50;;;;;;5092114;28;20094;-60
2022/10/11 08:59:02;;;;;;;10.93;2.28;;;23.70;86.50;;;;;;5092586;28;20446;-61
2022/10/11 09:01:31;;;;;;;7.10;2.10;;;24.20;87.60;;;;;;5075138;28;20497;-60
2022/10/11 09:03:58;;;;;;;8.18;2.13;;;24.50;86.10;;;;;;5092058;28;20441;-60
2022/10/11 09:06:35;;;;;;;7.53;2.13;;;24.80;85.60;;;;;;5074623;28;20060;-60
2022/10/11 09:09:27;;;;;;;8.80;2.35;;;24.70;81.80;;;;;;5074941;28;20105;-60
2022/10/11 09:12:11;;;;;;;8.77;2.90;;;24.60;80.30;;;;;;5073961;28;20552;-61
2022/10/11 09:14:49;;;;;;;7.35;2.63;;;24.60;81.60;;;;;;5086814;28;21512;-61
2022/10/11 09:17:31;;;;;;;9.02;2.40;;;24.70;82.70;;;;;;5055491;28;20056;-61
2022/10/11 09:20:38;;;;;;;6.72;2.58;;;24.10;82.40;;;;;;5070791;28;20118;-61
2022/10/11 09:23:17;;;;;;;10.75;2.95;;;24.50;81.00;;;;;;5002817;28;20564;-61
2022/10/11 09:25:49;;;;;;;7.32;2.63;;;24.80;80.50;;;;;;4991921;28;20064;-61
2022/10/11 09:28:27;;;;;;;10.13;2.88;;;25.20;81.40;;;;;;5049747;28;20458;-60
2022/10/11 09:30:57;;;;;;;9.00;2.55;;;25.60;80.00;;;;;;5087366;28;20060;-60
2022/10/11 09:33:33;;;;;;;9.02;2.55;;;25.50;80.60;;;;;;5095219;28;20056;-62
2022/10/11 09:36:01;;;;;;;8.23;2.28;;;24.30;81.30;;;;;;5095029;28;20079;-60
2022/10/11 09:38:38;;;;;;;9.43;2.17;;;24.10;84.50;;;;;;5099371;27;20097;-60
2022/10/11 09:41:13;;;;;;;5.15;2.08;;;23.60;84.70;;;;;;5095090;28;20048;-60
2022/10/11 09:43:40;;;;;;;8.82;2.50;;;24.20;84.70;;;;;;5083154;28;20102;-61
2022/10/11 09:46:20;;;;;;;7.30;2.10;;;24.90;82.70;;;;;;5093744;28;20052;-61
2022/10/11 09:48:50;;;;;;;8.30;2.03;;;25.00;81.10;;;;;;5111378;28;20105;-61
2022/10/11 09:51:21;;;;;;;9.93;2.63;;;24.60;81.50;;;;;;5085655;28;20446;-61
2022/10/11 09:53:57;;;;;;;9.88;2.30;;;23.10;82.30;;;;;;5095895;28;20048;-62
2022/10/11 09:56:26;;;;;;;10.38;2.60;;;22.40;84.70;;;;;;5098148;27;20067;-60
2022/10/11 09:59:18;;;;;;;6.07;2.35;;;22.70;86.50;;;;;;5094628;28;20058;-60
2022/10/11 10:01:45;;;;;;;11.93;2.28;;;23.30;84.60;;;;;;5094111;28;20052;-60
2022/10/11 10:04:17;;;;;;;12.93;2.30;;;23.20;84.90;;;;;;5102624;28;20044;-60
2022/10/11 10:06:43;;;;;;;7.70;2.67;;;23.70;84.60;;;;;;5082666;28;20063;-60
2022/10/11 10:09:24;;;;;;;8.50;2.60;;;24.40;83.80;;;;;;5109815;28;20063;-60
2022/10/11 10:11:51;;;;;;;8.82;2.67;;;24.90;80.90;;;;;;5094179;28;20108;-60
2022/10/11 10:14:24;;;;;;;6.05;1.92;;;23.80;83.00;;;;;;5076395;28;20108;-61
2022/10/11 10:17:00;;;;;;;9.15;2.15;;;23.40;83.10;;;;;;5078752;28;20052;-61
2022/10/11 10:19:29;;;;;;;10.30;2.80;;;23.20;84.30;;;;;;5097109;28;20081;-61
2022/10/11 10:21:56;;;;;;;11.10;2.78;;;24.20;84.20;;;;;;5082224;28;20062;-60
2022/10/11 10:24:36;;;;;;;8.07;2.33;;;25.10;82.00;;;;;;5081966;28;20140;-60
2022/10/11 10:27:15;;;;;;;8.00;2.50;;;25.50;78.80;;;;;;5094157;28;20048;-60
2022/10/11 10:29:43;;;;;;;6.40;2.22;;;26.00;78.90;;;;;;5081113;28;20541;-60
2022/10/11 10:32:12;;;;;;;6.10;2.20;;;25.40;79.60;;;;;;5098438;28;20048;-60
2022/10/11 10:34:53;;;;;;;7.22;1.75;;;26.30;78.10;;;;;;5075919;28;20055;-61
2022/10/11 10:37:26;;;;;;;8.73;2.15;;;26.20;75.70;;;;;;5093850;28;20398;-61
2022/10/11 10:40:00;;;;;;;12.32;2.83;;;26.70;77.10;;;;;;5093252;28;20051;-61
2022/10/11 10:42:27;;;;;;;7.18;2.35;;;26.90;76.30;;;;;;5094136;28;20569;-61
2022/10/11 10:44:57;;;;;;;4.95;1.77;;;27.20;76.10;;;;;;5113519;28;20044;-61
2022/10/11 10:47:31;;;;;;;;;;;27.70;75.50;;;;;;5116050;28;20059;-61
2022/10/11 10:50:05;;;;;;;8.77;2.15;;;27.70;72.90;;;;;;5114684;28;19920;-61
2022/10/11 10:52:46;;;;;;;8.05;2.25;;;26.70;73.10;;;;;;5115595;28;20403;-62
2022/10/11 10:55:25;;;;;;;9.65;1.77;;;26.00;75.70;;;;;;5115437;28;20392;-61
2022/10/11 10:58:19;;;;;;;5.57;1.73;;;25.60;75.70;;;;;;5096177;28;20051;-60
2022/10/11 11:00:49;;;;;;;7.72;2.08;;;25.40;74.30;;;;;;5115227;28;20048;-60
2022/10/11 11:03:23;;;;;;;4.00;1.60;;;25.80;74.40;;;;;;5114705;28;20043;-60
2022/10/11 11:06:00;;;;;;;6.45;1.90;;;25.60;72.30;;;;;;5115072;28;20487;-61
2022/10/11 11:08:46;;;;;;;4.10;1.83;;;24.90;73.20;;;;;;5115452;28;20054;-60
2022/10/11 11:11:25;;;;;;;8.05;2.38;;;24.10;75.20;;;;;;5114177;28;20052;-60
2022/10/11 11:13:57;;;;;;;;;;;22.80;76.90;;;;;;5097090;28;20556;-61
2022/10/11 11:16:32;;;;;;;4.93;1.80;;;21.60;82.00;;;;;;5130713;27;19924;-60
2022/10/11 11:19:06;;;;;;;18.90;2.38;;;20.90;83.50;;;;;;5114479;28;20392;-61
2022/10/11 11:21:42;;;;;;;7.07;2.05;;;20.00;86.50;;;;;;5096825;28;20052;-61
2022/10/11 11:24:18;;;;;;;9.30;2.20;;;19.40;89.60;;;;;;5096812;28;20051;-60
2022/10/11 11:26:51;;;;;;;9.23;2.03;;;19.00;90.70;;;;;;5114596;28;20495;-61
2022/10/11 11:29:34;;;;;;;6.53;1.83;;;19.30;91.50;;;;;;5114828;28;20096;-60
2022/10/11 11:32:15;;;;;;;7.80;1.67;;;20.70;90.60;;;;;;5095529;28;20051;-60
2022/10/11 11:34:46;;;;;;;7.43;2.20;;;21.10;88.90;;;;;;5114594;28;20557;-60
2022/10/11 11:37:22;;;;;;;8.20;2.42;;;20.70;88.80;;;;;;5096508;28;20116;-61
2022/10/11 11:39:52;;;;;;;7.65;2.00;;;20.10;90.10;;;;;;5113479;28;20092;-60
2022/10/11 11:42:24;;;;;;;6.72;2.50;;;19.60;90.60;;;;;;5114287;28;20051;-60
2022/10/11 11:44:51;;;;;;;8.68;1.80;;;18.90;91.40;;;;;;5096812;28;20040;-60
2022/10/11 11:47:24;;;;;;;6.57;2.10;;;18.50;92.20;;;;;;5113514;28;20093;-61
2022/10/11 11:49:58;;;;;;;9.38;2.10;;;18.20;93.00;;;;;;5114024;28;20052;-60
2022/10/11 11:52:32;;;;;;;7.70;1.95;;;17.90;94.40;;;;;;5113763;28;20118;-60
2022/10/11 11:55:10;;;;;;;7.18;2.22;;;17.80;94.80;;;;;;5095705;28;20096;-62
2022/10/11 11:57:50;;;;;;;9.35;2.67;;;17.50;96.00;;;;;;5113929;28;20116;-61
2022/10/11 12:00:20;;;;;;;7.80;2.00;;;17.30;97.30;;;;;;5095397;28;20055;-60
2022/10/11 12:02:53;;;;;;;8.13;2.10;;;17.10;96.80;;;;;;5113803;28;20396;-61
2022/10/11 12:05:23;;;;;;;8.10;2.28;;;17.00;97.40;;;;;;5093649;28;20403;-61
2022/10/11 12:07:58;;;;;;;9.50;2.20;;;16.80;98.00;;;;;;5089948;28;20058;-61
2022/10/11 12:10:29;;;;;;;10.07;2.05;;;16.60;98.40;;;;;;5093641;28;20438;-61
2022/10/11 12:13:17;;;;;;;5.82;1.65;;;16.60;99.00;;;;;;5104861;28;20052;-61
2022/10/11 12:16:09;;;;;;;7.93;1.83;;;16.70;99.30;;;;;;5113149;28;20059;-61
2022/10/11 12:18:48;;;;;;;5.43;2.03;;;16.70;99.40;;;;;;5113862;28;20074;-60
2022/10/11 12:21:25;;;;;;;9.65;2.38;;;16.80;99.30;;;;;;5095115;28;20054;-61
2022/10/11 12:23:54;;;;;;;6.18;1.75;;;17.00;99.30;;;;;;5095713;28;20055;-60
2022/10/11 12:26:43;;;;;;;7.78;2.13;;;18.00;98.30;;;;;;5113516;28;20050;-62
2022/10/11 12:29:42;;;;;;;6.72;1.60;;;19.50;95.70;;;;;;5112916;28;20482;-61
2022/10/11 12:32:52;;;;;;;6.20;2.15;;;20.00;93.70;;;;;;5095337;28;20079;-61
2022/10/11 12:35:50;;;;;;;8.48;2.20;;;20.60;93.40;;;;;;5094715;28;20112;-60
2022/10/11 12:38:21;;;;;;;10.40;1.85;;;22.80;90.50;;;;;;5095475;28;20052;-60
2022/10/11 12:40:49;;;;;;;;;;;23.70;87.40;;;;;;5095852;28;20056;-61
2022/10/11 12:43:27;;;;;;;6.32;2.00;;;24.80;83.60;;;;;;5112439;28;19924;-60
2022/10/11 12:45:54;;;;;;;7.68;2.13;;;25.70;78.50;;;;;;5128128;27;20059;-61
2022/10/11 12:48:45;;;;;;;6.35;2.30;;;25.80;78.70;;;;;;5134260;27;20051;-60
2022/10/11 12:51:36;;;;;;;7.28;2.08;;;26.30;75.90;;;;;;5118416;27;20048;-60
2022/10/11 12:54:38;;;;;;;6.03;1.85;;;25.90;73.80;;;;;;5108745;28;20052;-61
2022/10/11 12:57:40;;;;;;;5.60;1.88;;;25.30;74.80;;;;;;5095070;28;20170;-61
2022/10/11 13:00:19;;;;;;;10.07;2.00;;;23.50;77.20;;;;;;5095008;28;20140;-61
2022/10/11 13:02:47;;;;;;;8.15;2.40;;;22.10;80.90;;;;;;5093792;28;20149;-60
2022/10/11 13:05:21;;;;;;;9.10;1.60;;;21.30;84.00;;;;;;5094683;28;20092;-60
2022/10/11 13:07:49;;;;;;;8.00;2.00;;;20.90;85.40;;;;;;5113129;28;20051;-61
2022/10/11 13:10:19;;;;;;;6.10;1.60;;;20.00;88.10;;;;;;5094337;28;20108;-61
2022/10/11 13:12:48;;;;;;;7.93;1.88;;;19.60;90.10;;;;;;5094846;28;20112;-61
2022/10/11 13:15:18;;;;;;;7.25;1.55;;;19.10;91.10;;;;;;5113057;28;20592;-60
2022/10/11 13:17:47;;;;;;;9.23;2.33;;;18.90;91.90;;;;;;5112198;28;20052;-61
2022/10/11 13:20:18;;;;;;;5.78;2.20;;;19.50;91.90;;;;;;5112602;28;20444;-58
2022/10/11 13:22:48;;;;;;;7.40;1.98;;;20.20;91.30;;;;;;5095029;28;20056;-62
2022/10/11 13:25:18;;;;;;;6.88;1.88;;;20.70;90.80;;;;;;5112273;28;20499;-62
2022/10/11 13:27:47;;;;;;;5.70;1.63;;;20.80;90.20;;;;;;5112904;28;20499;-61
2022/10/11 13:30:19;;;;;;;6.53;1.98;;;20.40;90.00;;;;;;5094424;28;20051;-60
2022/10/11 13:32:46;;;;;;;7.72;1.60;;;20.90;89.00;;;;;;5112282;28;20051;-59
2022/10/11 13:35:20;;;;;;;7.00;1.83;;;21.20;88.30;;;;;;5112945;28;20048;-60